createdAt,value
2022-12-14T00:01:53.293Z,2.93
2022-12-14T00:04:39.625Z,3.90
2022-12-14T00:07:25.957Z,4.20
2022-12-14T00:10:13.964Z,3.53
2022-12-14T00:13:00.453Z,4.40
2022-12-14T00:15:46.754Z,3.40
2022-12-14T00:18:33.354Z,4.03
2022-12-14T00:21:19.909Z,3.93
2022-12-14T00:24:06.420Z,3.30
2022-12-14T00:26:54.076Z,3.20
2022-12-14T00:29:40.093Z,4.07
2022-12-14T00:32:27.300Z,3.90
2022-12-14T00:35:16.627Z,4.23
2022-12-14T00:38:02.967Z,3.80
2022-12-14T00:40:50.116Z,5.57
2022-12-14T00:43:37.879Z,4.77
2022-12-14T00:46:24.450Z,5.43
2022-12-14T00:49:11.477Z,2.70
2022-12-14T00:51:57.780Z,3.80
2022-12-14T00:54:44.714Z,3.87
2022-12-14T00:57:30.982Z,3.07
2022-12-14T01:00:18.701Z,2.60
2022-12-14T01:03:05.880Z,3.43
2022-12-14T01:05:52.075Z,3.40
2022-12-14T01:08:39.889Z,2.50
2022-12-14T01:11:26.843Z,4.80
2022-12-14T01:14:14.053Z,4.13
2022-12-14T01:17:02.065Z,4.27
2022-12-14T01:19:49.274Z,4.83
2022-12-14T01:22:35.970Z,3.93
2022-12-14T01:25:22.182Z,5.53
2022-12-14T01:28:08.291Z,3.53
2022-12-14T01:30:54.569Z,3.70
2022-12-14T01:33:42.270Z,3.93
2022-12-14T01:36:29.203Z,4.50
2022-12-14T01:39:17.098Z,3.40
2022-12-14T01:42:03.677Z,3.57
2022-12-14T01:44:59.748Z,2.90
2022-12-14T01:47:50.270Z,2.37
2022-12-14T01:50:39.206Z,4.17
2022-12-14T01:53:25.744Z,4.07
2022-12-14T01:56:12.280Z,3.50
2022-12-14T01:59:03.110Z,3.80
2022-12-14T02:01:50.261Z,3.77
2022-12-14T02:04:37.939Z,3.97
2022-12-14T02:07:27.723Z,3.63
2022-12-14T02:10:13.912Z,3.20
2022-12-14T02:13:04.065Z,2.97
2022-12-14T02:15:50.316Z,3.37
2022-12-14T02:18:37.193Z,3.17
2022-12-14T02:21:25.185Z,3.87
2022-12-14T02:24:31.757Z,3.97
2022-12-14T02:27:28.759Z,2.87
2022-12-14T02:30:18.220Z,4.93
2022-12-14T02:33:15.695Z,4.00
2022-12-14T02:36:03.829Z,3.70
2022-12-14T02:38:55.506Z,2.87
2022-12-14T02:41:46.233Z,3.10
2022-12-14T02:44:35.081Z,3.50
2022-12-14T02:47:25.320Z,3.87
2022-12-14T02:50:14.755Z,3.40
2022-12-14T02:53:05.478Z,2.47
2022-12-14T02:55:53.219Z,3.27
2022-12-14T02:58:41.578Z,3.00
2022-12-14T03:01:29.017Z,4.03
2022-12-14T03:04:17.338Z,3.93
2022-12-14T03:07:23.583Z,2.93
2022-12-14T03:10:13.853Z,2.70
2022-12-14T03:13:03.178Z,4.13
2022-12-14T03:15:51.989Z,4.07
2022-12-14T03:18:40.231Z,3.03
2022-12-14T03:21:29.812Z,3.33
2022-12-14T03:24:20.269Z,3.23
2022-12-14T03:27:09.983Z,3.57
2022-12-14T03:29:59.050Z,3.00
2022-12-14T03:32:47.587Z,3.70
2022-12-14T03:35:34.995Z,3.50
2022-12-14T03:38:25.478Z,3.50
2022-12-14T03:41:16.731Z,3.00
2022-12-14T03:44:13.050Z,3.10
2022-12-14T03:47:03.671Z,2.73
2022-12-14T03:49:55.660Z,2.93
2022-12-14T03:52:43.884Z,2.47
2022-12-14T03:55:34.529Z,4.20
2022-12-14T03:58:29.948Z,3.17
2022-12-14T04:01:18.365Z,3.73
2022-12-14T04:04:08.117Z,3.33
2022-12-14T04:06:56.859Z,4.40
2022-12-14T04:09:47.115Z,3.00
2022-12-14T04:12:54.860Z,2.40
2022-12-14T04:16:00.117Z,3.30
2022-12-14T04:19:00.499Z,2.83
2022-12-14T04:21:49.175Z,4.17
2022-12-14T04:24:59.997Z,2.83
2022-12-14T04:27:49.275Z,3.47
2022-12-14T04:30:37.475Z,4.00
2022-12-14T04:33:41.023Z,3.47
2022-12-14T04:36:29.543Z,3.70
2022-12-14T04:39:18.117Z,2.90
2022-12-14T04:42:06.327Z,3.80
2022-12-14T04:44:56.044Z,4.33
2022-12-14T04:47:44.978Z,3.87
2022-12-14T04:50:32.005Z,2.87
2022-12-14T04:53:19.643Z,4.20
2022-12-14T04:56:08.534Z,4.37
2022-12-14T04:58:55.128Z,4.50
2022-12-14T05:01:49.163Z,2.73
2022-12-14T05:04:41.290Z,4.03
2022-12-14T05:07:33.416Z,3.63
2022-12-14T05:10:21.217Z,3.83
2022-12-14T05:13:10.174Z,3.77
2022-12-14T05:15:57.071Z,4.90
2022-12-14T05:18:45.598Z,4.00
2022-12-14T05:21:50.213Z,5.20
2022-12-14T05:24:36.426Z,5.03
2022-12-14T05:27:22.682Z,5.27
2022-12-14T05:30:09.809Z,4.43
2022-12-14T05:32:56.135Z,4.57
2022-12-14T05:35:43.729Z,4.30
2022-12-14T05:38:29.957Z,4.47
2022-12-14T05:41:16.204Z,4.50
2022-12-14T05:44:02.534Z,4.50
2022-12-14T05:46:49.151Z,4.60
2022-12-14T05:49:35.256Z,3.73
2022-12-14T05:52:25.409Z,4.00
2022-12-14T05:55:11.641Z,4.30
2022-12-14T05:57:58.115Z,4.17
2022-12-14T06:00:44.706Z,3.67
2022-12-14T06:03:31.224Z,2.67
2022-12-14T06:06:17.808Z,4.00
2022-12-14T06:09:06.922Z,5.37
2022-12-14T06:11:52.974Z,7.57
2022-12-14T06:14:39.453Z,30.23
2022-12-14T06:17:25.902Z,6.27
2022-12-14T06:20:12.295Z,4.17
2022-12-14T06:22:58.937Z,4.70
2022-12-14T06:25:53.821Z,3.93
2022-12-14T06:28:40.123Z,5.83
2022-12-14T06:31:27.410Z,4.13
2022-12-14T06:34:13.796Z,4.87
2022-12-14T06:37:07.407Z,4.47
2022-12-14T06:39:54.576Z,5.10
2022-12-14T06:42:42.662Z,5.97
2022-12-14T06:45:29.493Z,6.47
2022-12-14T06:48:16.099Z,6.53
2022-12-14T06:51:02.853Z,5.27
2022-12-14T06:53:51.862Z,13.57
2022-12-14T06:56:38.500Z,5.60
2022-12-14T06:59:26.087Z,5.87
2022-12-14T07:02:12.690Z,5.43
2022-12-14T07:04:59.090Z,4.10
2022-12-14T07:07:45.613Z,4.50
2022-12-14T07:10:32.141Z,4.67
2022-12-14T07:13:18.853Z,6.37
2022-12-14T07:16:07.420Z,5.93
2022-12-14T07:18:55.288Z,6.93
2022-12-14T07:21:41.806Z,7.57
2022-12-14T07:24:31.578Z,9.77
2022-12-14T07:27:18.703Z,7.57
2022-12-14T07:30:05.459Z,6.97
2022-12-14T07:32:53.320Z,7.70
2022-12-14T07:35:39.954Z,6.20
2022-12-14T07:38:26.408Z,7.87
2022-12-14T07:41:16.545Z,7.67
2022-12-14T07:44:06.805Z,6.67
2022-12-14T07:46:54.075Z,6.73
2022-12-14T07:49:42.282Z,6.97
2022-12-14T07:52:34.195Z,7.67
2022-12-14T07:55:23.264Z,7.07
2022-12-14T07:58:09.890Z,7.23
2022-12-14T08:00:56.340Z,4.70
2022-12-14T08:03:43.948Z,12.83
2022-12-14T08:06:34.859Z,10.47
2022-12-14T08:09:21.464Z,6.37
2022-12-14T08:12:08.036Z,4.10
2022-12-14T08:14:55.078Z,5.97
2022-12-14T08:17:41.862Z,4.07
2022-12-14T08:20:28.471Z,5.13
2022-12-14T08:23:16.311Z,7.67
2022-12-14T08:26:03.590Z,5.67
2022-12-14T08:28:50.166Z,5.90
2022-12-14T08:31:36.743Z,4.97
2022-12-14T08:34:23.438Z,5.27
2022-12-14T08:37:10.863Z,5.27
2022-12-14T08:39:58.563Z,5.53
2022-12-14T08:42:45.589Z,3.77
2022-12-14T08:45:31.936Z,4.17
2022-12-14T08:48:18.775Z,6.13
2022-12-14T08:51:06.086Z,5.87
2022-12-14T08:53:53.126Z,4.43
2022-12-14T08:56:47.583Z,5.17
2022-12-14T09:00:00.847Z,6.30
2022-12-14T09:02:42.649Z,6.27
2022-12-14T09:05:29.490Z,5.30
2022-12-14T09:08:16.291Z,6.20
2022-12-14T09:11:03.716Z,6.33
2022-12-14T09:13:54.107Z,6.40
2022-12-14T09:16:40.502Z,6.07
2022-12-14T09:19:27.327Z,6.20
2022-12-14T09:22:15.221Z,4.37
2022-12-14T09:25:01.791Z,5.17
2022-12-14T09:27:48.251Z,5.77
2022-12-14T09:30:36.019Z,7.20
2022-12-14T09:33:22.175Z,5.97
2022-12-14T09:36:09.235Z,6.50
2022-12-14T09:38:57.625Z,4.90
2022-12-14T09:41:59.246Z,6.63
2022-12-14T09:44:53.279Z,6.27
2022-12-14T09:47:44.177Z,5.43
2022-12-14T09:50:30.777Z,4.63
2022-12-14T09:53:17.274Z,5.73
2022-12-14T09:56:04.502Z,5.30
2022-12-14T09:58:54.900Z,4.50
2022-12-14T10:02:29.036Z,4.53
2022-12-14T10:05:21.241Z,4.33
2022-12-14T10:08:10.652Z,5.80
2022-12-14T10:10:59.539Z,5.83
2022-12-14T10:13:52.073Z,4.43
2022-12-14T10:16:48.463Z,6.17
2022-12-14T10:19:40.653Z,6.07
2022-12-14T10:22:30.678Z,5.80
2022-12-14T10:25:18.501Z,6.77
2022-12-14T10:28:11.539Z,12.10
2022-12-14T10:31:00.384Z,6.83
2022-12-14T10:33:47.542Z,5.40
2022-12-14T10:36:37.595Z,5.03
2022-12-14T10:39:43.552Z,5.17
2022-12-14T10:42:42.502Z,5.63
2022-12-14T10:45:42.182Z,5.17
2022-12-14T10:48:41.085Z,4.00
2022-12-14T10:51:31.640Z,3.50
2022-12-14T10:54:23.853Z,3.83
2022-12-14T10:57:13.164Z,2.83
2022-12-14T11:00:09.518Z,3.13
2022-12-14T11:02:57.192Z,3.17
2022-12-14T11:05:47.496Z,4.67
2022-12-14T11:08:42.600Z,5.50
2022-12-14T11:11:30.481Z,3.90
2022-12-14T11:14:20.870Z,4.73
2022-12-14T11:17:29.216Z,4.10
2022-12-14T11:20:18.327Z,4.63
2022-12-14T11:23:08.937Z,3.73
2022-12-14T11:25:56.351Z,5.23
2022-12-14T11:28:49.898Z,2.70
2022-12-14T11:31:39.444Z,3.67
2022-12-14T11:34:30.494Z,2.63
2022-12-14T11:37:22.315Z,2.77
2022-12-14T11:40:19.345Z,1.93
2022-12-14T11:43:05.923Z,3.03
2022-12-14T11:45:52.362Z,3.37
2022-12-14T11:48:47.555Z,1.90
2022-12-14T11:51:33.942Z,2.47
2022-12-14T11:54:20.237Z,1.87
2022-12-14T11:57:08.196Z,2.30
2022-12-14T11:59:56.103Z,2.53
2022-12-14T12:02:48.403Z,2.97
2022-12-14T12:05:40.517Z,3.43
2022-12-14T12:08:29.284Z,2.30
2022-12-14T12:11:17.582Z,2.10
2022-12-14T12:14:05.284Z,1.70
2022-12-14T12:16:53.307Z,1.97
2022-12-14T12:19:40.065Z,3.30
2022-12-14T12:22:31.544Z,2.57
2022-12-14T12:25:29.554Z,1.50
2022-12-14T12:28:21.901Z,2.43
2022-12-14T12:31:11.345Z,4.57
2022-12-14T12:33:59.298Z,2.90
2022-12-14T12:37:09.635Z,3.20
2022-12-14T12:39:57.995Z,3.53
2022-12-14T12:42:47.278Z,1.30
2022-12-14T12:45:36.752Z,1.40
2022-12-14T12:48:24.261Z,1.50
2022-12-14T12:51:13.198Z,1.90
2022-12-14T12:54:01.867Z,2.50
2022-12-14T12:56:51.334Z,2.03
2022-12-14T12:59:39.164Z,2.00
2022-12-14T13:02:30.263Z,2.40
2022-12-14T13:08:28.447Z,4.27
2022-12-14T13:11:26.077Z,4.90
2022-12-14T13:14:18.802Z,3.03
2022-12-14T13:17:06.075Z,2.93
2022-12-14T13:19:54.422Z,6.57
2022-12-14T13:22:42.291Z,3.60
2022-12-14T13:25:31.686Z,3.33
2022-12-14T13:28:35.969Z,7.67
2022-12-14T13:31:32.252Z,4.63
2022-12-14T13:34:23.471Z,7.50
2022-12-14T13:37:35.416Z,3.77
2022-12-14T13:40:42.479Z,11.43
2022-12-14T13:43:35.735Z,6.87
2022-12-14T13:46:23.666Z,4.20
2022-12-14T13:49:19.922Z,6.43
2022-12-14T13:52:06.713Z,4.80
2022-12-14T13:54:53.337Z,3.43
2022-12-14T13:57:39.860Z,3.43
2022-12-14T14:00:44.612Z,4.17
2022-12-14T14:03:51.236Z,5.80
2022-12-14T14:06:41.159Z,7.67
2022-12-14T14:09:48.696Z,7.60
2022-12-14T14:12:39.928Z,6.73
2022-12-14T14:16:18.940Z,6.80
2022-12-14T14:18:55.115Z,6.93
2022-12-14T14:22:06.142Z,11.40
2022-12-14T14:24:57.883Z,7.60
2022-12-14T14:27:50.790Z,10.47
2022-12-14T14:30:38.432Z,7.60
2022-12-14T14:33:47.588Z,10.10
2022-12-14T14:36:36.146Z,8.77
2022-12-14T14:39:55.488Z,8.00
2022-12-14T14:42:41.533Z,5.87
2022-12-14T14:45:33.416Z,6.47
2022-12-14T14:48:23.311Z,8.30
2022-12-14T14:51:17.540Z,7.87
2022-12-14T14:57:36.619Z,5.30
2022-12-14T15:00:23.228Z,5.60
2022-12-14T15:03:13.822Z,6.33
2022-12-14T15:06:00.718Z,5.33
2022-12-14T15:08:48.844Z,7.03
2022-12-14T15:11:37.506Z,5.50
2022-12-14T15:14:32.552Z,4.20
2022-12-14T15:17:21.425Z,5.73
2022-12-14T15:20:21.795Z,5.90
2022-12-14T15:23:08.474Z,7.43
2022-12-14T15:25:59.109Z,7.50
2022-12-14T15:28:48.078Z,23.47
2022-12-14T15:31:38.307Z,9.43
2022-12-14T15:34:24.728Z,5.87
2022-12-14T15:37:23.202Z,11.67
2022-12-14T15:40:12.990Z,9.47
2022-12-14T15:43:00.688Z,9.93
2022-12-14T15:45:48.390Z,10.73
2022-12-14T15:48:36.750Z,10.50
2022-12-14T15:51:24.425Z,12.20
2022-12-14T15:54:16.012Z,13.87
2022-12-14T15:57:02.337Z,13.33
2022-12-14T15:59:49.421Z,7.40
2022-12-14T16:02:39.002Z,5.90
2022-12-14T16:05:27.184Z,4.07
2022-12-14T16:08:14.030Z,7.13
2022-12-14T16:11:02.290Z,4.40
2022-12-14T16:13:48.920Z,2.17
2022-12-14T16:16:35.374Z,4.83
2022-12-14T16:19:28.251Z,3.83
2022-12-14T16:22:22.038Z,5.03
2022-12-14T16:25:19.200Z,5.03
2022-12-14T16:28:22.948Z,8.17
2022-12-14T16:31:18.441Z,7.43
2022-12-14T16:34:10.039Z,10.97
2022-12-14T16:37:32.192Z,14.83
2022-12-14T16:40:21.892Z,7.90
2022-12-14T16:43:08.959Z,8.40
2022-12-14T16:46:10.306Z,10.37
2022-12-14T16:49:30.408Z,9.73
2022-12-14T16:52:17.801Z,11.83
2022-12-14T16:55:13.230Z,11.07
2022-12-14T16:57:59.670Z,6.80
2022-12-14T17:00:57.576Z,10.93
2022-12-14T17:03:44.625Z,4.97
2022-12-14T17:06:35.311Z,7.67
2022-12-14T17:09:23.278Z,7.20
2022-12-14T17:12:14.189Z,6.40
2022-12-14T17:15:00.828Z,6.47
2022-12-14T17:17:49.483Z,9.90
2022-12-14T17:20:37.321Z,11.33
2022-12-14T17:23:24.235Z,10.53
2022-12-14T17:26:13.530Z,5.90
2022-12-14T17:29:01.388Z,5.93
2022-12-14T17:31:50.162Z,6.20
2022-12-14T17:34:36.782Z,9.60
2022-12-14T17:37:25.095Z,7.80
2022-12-14T17:40:12.375Z,6.67
2022-12-14T17:42:59.551Z,5.00
2022-12-14T17:45:47.279Z,6.20
2022-12-14T17:48:33.999Z,4.57
2022-12-14T17:51:22.699Z,4.70
2022-12-14T17:54:13.600Z,5.47
2022-12-14T17:57:00.775Z,3.80
2022-12-14T17:59:47.857Z,4.70
2022-12-14T18:02:36.225Z,2.70
2022-12-14T18:05:23.150Z,4.40
2022-12-14T18:08:10.120Z,3.50
2022-12-14T18:10:58.454Z,4.33
2022-12-14T18:13:45.012Z,4.10
2022-12-14T18:16:33.637Z,5.53
2022-12-14T18:19:21.516Z,4.23
2022-12-14T18:22:08.116Z,4.83
2022-12-14T18:24:54.632Z,6.50
2022-12-14T18:27:41.170Z,5.57
2022-12-14T18:30:30.871Z,6.07
2022-12-14T18:33:21.197Z,6.27
2022-12-14T18:36:11.925Z,5.33
2022-12-14T18:38:58.399Z,5.63
2022-12-14T18:41:44.843Z,6.23
2022-12-14T18:44:31.244Z,6.87
2022-12-14T18:47:40.793Z,6.87
2022-12-14T18:50:24.637Z,8.63
2022-12-14T18:53:14.612Z,7.23
2022-12-14T18:56:01.762Z,6.37
2022-12-14T18:58:48.035Z,4.93
2022-12-14T19:01:34.281Z,4.70
2022-12-14T19:04:22.411Z,6.20
2022-12-14T19:07:08.849Z,8.67
2022-12-14T19:09:56.820Z,6.57
2022-12-14T19:12:43.516Z,6.87
2022-12-14T19:15:33.246Z,6.00
2022-12-14T19:18:19.649Z,8.17
2022-12-14T19:21:06.228Z,6.67
2022-12-14T19:23:52.798Z,6.30
2022-12-14T19:26:40.799Z,10.47
2022-12-14T19:29:26.971Z,12.83
2022-12-14T19:32:13.575Z,10.17
2022-12-14T19:35:00.260Z,11.97
2022-12-14T19:37:46.467Z,11.27
2022-12-14T19:40:32.955Z,10.73
2022-12-14T19:43:20.838Z,8.63
2022-12-14T19:46:07.636Z,12.33
2022-12-14T19:48:53.992Z,12.10
2022-12-14T19:51:40.769Z,14.37
2022-12-14T19:54:28.590Z,13.13
2022-12-14T19:57:15.057Z,15.73
2022-12-14T20:00:03.859Z,14.40
2022-12-14T20:02:50.800Z,5.40
2022-12-14T20:05:37.706Z,3.50
2022-12-14T20:08:24.239Z,6.13
2022-12-14T20:11:11.912Z,9.77
2022-12-14T20:14:02.966Z,4.63
2022-12-14T20:16:52.181Z,4.93
2022-12-14T20:19:38.896Z,4.37
2022-12-14T20:22:25.155Z,4.10
2022-12-14T20:25:11.388Z,4.33
2022-12-14T20:27:57.546Z,6.70
2022-12-14T20:30:45.184Z,3.90
2022-12-14T20:33:33.658Z,4.40
2022-12-14T20:36:22.269Z,4.43
2022-12-14T20:39:09.919Z,2.27
2022-12-14T20:41:56.448Z,2.30
2022-12-14T20:44:42.937Z,3.03
2022-12-14T20:47:29.459Z,1.97
2022-12-14T20:50:17.117Z,3.13
2022-12-14T20:53:03.207Z,2.10
2022-12-14T20:55:49.658Z,1.50
2022-12-14T20:58:36.218Z,2.77
2022-12-14T21:01:23.338Z,2.27
2022-12-14T21:04:09.620Z,3.00
2022-12-14T21:06:57.182Z,3.37
2022-12-14T21:09:43.349Z,2.20
2022-12-14T21:12:29.465Z,3.00
2022-12-14T21:15:16.163Z,3.10
2022-12-14T21:18:02.544Z,2.60
2022-12-14T21:20:49.276Z,3.03
2022-12-14T21:23:37.374Z,2.67
2022-12-14T21:26:23.707Z,2.23
2022-12-14T21:29:11.341Z,1.53
2022-12-14T21:31:58.323Z,1.90
2022-12-14T21:34:44.979Z,1.23
2022-12-14T21:37:31.195Z,2.00
2022-12-14T21:40:33.203Z,2.33
2022-12-14T21:43:19.244Z,2.07
2022-12-14T21:46:05.600Z,2.60
2022-12-14T21:48:52.304Z,2.27
2022-12-14T21:51:38.935Z,2.70
2022-12-14T21:54:25.729Z,2.37
2022-12-14T21:57:32.935Z,2.33
2022-12-14T22:00:19.970Z,1.90
2022-12-14T22:03:06.371Z,1.80
2022-12-14T22:05:52.822Z,2.23
2022-12-14T22:08:39.332Z,2.63
2022-12-14T22:11:25.536Z,2.70
2022-12-14T22:14:14.371Z,1.57
2022-12-14T22:17:01.093Z,3.10
2022-12-14T22:19:49.001Z,2.87
2022-12-14T22:22:35.746Z,1.63
2022-12-14T22:25:22.193Z,1.90
2022-12-14T22:28:08.683Z,2.00
2022-12-14T22:30:56.299Z,3.17
2022-12-14T22:33:42.432Z,1.00
2022-12-14T22:36:28.749Z,1.90
2022-12-14T22:39:15.306Z,2.60
2022-12-14T22:42:01.474Z,2.47
2022-12-14T22:44:49.341Z,1.83
2022-12-14T22:47:37.146Z,2.37
2022-12-14T22:50:23.419Z,2.17
2022-12-14T22:53:09.738Z,1.53
2022-12-14T22:55:57.865Z,2.57
2022-12-14T22:58:45.888Z,1.83
2022-12-14T23:01:37.173Z,1.47
2022-12-14T23:04:25.029Z,1.97
2022-12-14T23:07:11.702Z,2.10
2022-12-14T23:10:15.718Z,1.57
2022-12-14T23:13:19.281Z,2.00
2022-12-14T23:16:23.100Z,1.70
2022-12-14T23:19:27.026Z,1.40
2022-12-14T23:22:32.537Z,1.60
2022-12-14T23:25:36.743Z,1.80
2022-12-14T23:28:40.788Z,1.97
2022-12-14T23:31:44.798Z,2.20
2022-12-14T23:34:48.738Z,1.73
2022-12-14T23:37:54.079Z,1.40
2022-12-14T23:40:57.763Z,1.93
2022-12-14T23:44:01.212Z,1.80
2022-12-14T23:47:05.100Z,1.37
2022-12-14T23:50:08.734Z,1.60
2022-12-14T23:53:14.188Z,2.20
2022-12-14T23:56:18.757Z,1.57
2022-12-14T23:59:26.360Z,1.70
